Time;durP1;ratioP1;P1;durP2;ratioP2;P2;SDS_P1;SDS_P2;PMS_P1;PMS_P2;Temp;Humidity;BMP_temperature;BMP_pressure;BME280_temperature;BME280_humidity;BME280_pressure;Samples;Min_cycle;Max_cycle;Signal;HPM_P1;HPM_P2
2022/08/13 00:00:10;;;;;;;9.50;3.70;;;;;;;;;;5039013;28;20044;-72
2022/08/13 00:02:39;;;;;;;7.43;3.08;;;;;;;;;;5053841;28;20478;-74
2022/08/13 00:05:06;;;;;;;6.82;3.40;;;;;;;;;;5062845;28;20050;-73
2022/08/13 00:07:32;;;;;;;6.55;3.45;;;;;;;;;;5058610;28;20036;-71
2022/08/13 00:09:59;;;;;;;6.00;2.67;;;;;;;;;;5051851;28;20475;-71
2022/08/13 00:15:29;;;;;;;7.38;3.20;;;;;;;;;;5040852;28;20104;-72
2022/08/13 00:18:00;;;;;;;6.22;3.35;;;;;;;;;;5028506;28;20110;-70
2022/08/13 00:20:28;;;;;;;8.82;4.15;;;;;;;;;;5033343;28;20021;-72
2022/08/13 00:22:54;;;;;;;7.90;3.03;;;;;;;;;;5033742;28;20478;-71
2022/08/13 00:25:20;;;;;;;12.40;3.60;;;;;;;;;;5030931;28;20026;-70
2022/08/13 00:27:47;;;;;;;8.15;3.53;;;;;;;;;;5030439;28;20414;-70
2022/08/13 00:30:17;;;;;;;6.28;3.67;;;;;;;;;;5033474;28;20045;-70
2022/08/13 00:32:45;;;;;;;15.07;4.05;;;;;;;;;;5032430;28;20029;-69
2022/08/13 00:35:12;;;;;;;12.77;4.60;;;;;;;;;;5033255;28;20037;-74
2022/08/13 00:37:41;;;;;;;10.60;4.43;;;;;;;;;;5038521;28;20021;-71
2022/08/13 00:40:09;;;;;;;7.95;4.38;;;;;;;;;;5040560;28;20112;-73
2022/08/13 00:42:37;;;;;;;10.45;5.05;;;;;;;;;;5027800;28;20017;-83
2022/08/13 00:45:04;;;;;;;18.15;4.55;;;;;;;;;;5029154;28;20055;-71
2022/08/13 00:50:15;;;;;;;6.25;4.43;;;;;;;;;;5033869;28;20033;-78
2022/08/13 00:52:41;;;;;;;8.80;4.50;;;;;;;;;;5035842;28;20021;-69
2022/08/13 00:55:09;;;;;;;7.35;4.40;;;;;;;;;;5041749;28;20038;-72
2022/08/13 00:57:36;;;;;;;7.18;4.78;;;;;;;;;;5031885;28;20036;-70
2022/08/13 01:00:07;;;;;;;7.72;4.07;;;;;;;;;;5033097;28;20410;-70
2022/08/13 01:02:33;;;;;;;8.65;4.40;;;;;;;;;;5032907;28;20032;-78
2022/08/13 01:05:01;;;;;;;10.63;4.40;;;;;;;;;;5033416;28;20437;-70
2022/08/13 01:07:29;;;;;;;8.73;4.93;;;;;;;;;;5015208;28;20034;-70
2022/08/13 01:09:55;;;;;;;13.43;4.38;;;;;;;;;;5032589;28;20032;-69
2022/08/13 01:12:21;;;;;;;6.10;4.38;;;;;;;;;;5051965;28;20080;-69
2022/08/13 01:14:49;;;;;;;7.38;3.95;;;;;;;;;;5068344;28;20037;-70
2022/08/13 01:17:22;;;;;;;7.53;4.85;;;;;;;;;;5056540;28;20509;-79
2022/08/13 01:19:49;;;;;;;6.33;4.27;;;;;;;;;;5052724;28;20107;-71
2022/08/13 01:22:15;;;;;;;11.65;4.72;;;;;;;;;;5059239;28;20107;-71
2022/08/13 01:24:42;;;;;;;5.95;4.45;;;;;;;;;;5060314;28;20085;-70
2022/08/13 01:27:10;;;;;;;5.53;4.22;;;;;;;;;;5051132;28;20017;-70
2022/08/13 01:29:36;;;;;;;5.15;4.13;;;;;;;;;;5052908;28;20066;-70
2022/08/13 01:32:05;;;;;;;7.82;4.75;;;;;;;;;;5057366;28;20017;-70
2022/08/13 01:34:32;;;;;;;8.88;5.15;;;;;;;;;;5052987;28;20158;-73
2022/08/13 01:36:58;;;;;;;7.22;4.50;;;;;;;;;;5051580;28;20032;-85
2022/08/13 01:39:28;;;;;;;8.48;4.65;;;;;;;;;;5053584;28;20021;-70
2022/08/13 01:41:55;;;;;;;6.75;4.20;;;;;;;;;;5056620;28;20025;-70
2022/08/13 01:44:23;;;;;;;6.28;4.57;;;;;;;;;;5063660;28;20028;-70
2022/08/13 01:52:33;;;;;;;8.20;4.63;;;;;;;;;;5048416;28;20444;-70
2022/08/13 01:55:01;;;;;;;5.55;4.45;;;;;;;;;;5056100;28;20132;-70
2022/08/13 01:57:27;;;;;;;6.60;4.60;;;;;;;;;;5056227;28;20025;-70
2022/08/13 01:59:53;;;;;;;6.93;4.80;;;;;;;;;;5056533;28;20029;-70
2022/08/13 02:02:23;;;;;;;6.88;4.85;;;;;;;;;;5038075;28;20040;-72
2022/08/13 02:04:49;;;;;;;7.93;4.45;;;;;;;;;;5056191;28;20618;-70
2022/08/13 02:07:15;;;;;;;7.18;4.80;;;;;;;;;;5056142;28;20056;-73
2022/08/13 02:09:43;;;;;;;5.82;4.45;;;;;;;;;;5056826;28;20074;-72
2022/08/13 02:12:13;;;;;;;10.13;4.85;;;;;;;;;;5059533;28;20052;-70
2022/08/13 02:14:42;;;;;;;12.65;4.65;;;;;;;;;;5078025;28;20040;-75
2022/08/13 02:17:24;;;;;;;8.18;4.97;;;;;;;;;;5076480;28;20024;-72
2022/08/13 02:19:52;;;;;;;7.13;4.82;;;;;;;;;;5077349;28;20044;-70
2022/08/13 02:22:18;;;;;;;7.82;5.15;;;;;;;;;;5064406;28;20496;-70
2022/08/13 02:24:52;;;;;;;5.47;4.28;;;;;;;;;;5082750;28;20124;-67
2022/08/13 02:27:20;;;;;;;7.35;5.10;;;;;;;;;;5086417;28;20078;-67
2022/08/13 02:29:47;;;;;;;7.00;5.00;;;;;;;;;;5075226;28;20029;-68
2022/08/13 02:32:13;;;;;;;6.47;4.65;;;;;;;;;;5063392;28;20053;-68
2022/08/13 02:34:39;;;;;;;6.82;4.68;;;;;;;;;;5066728;28;20052;-67
2022/08/13 02:37:05;;;;;;;8.27;5.00;;;;;;;;;;5067649;28;20065;-67
2022/08/13 02:39:31;;;;;;;6.90;4.68;;;;;;;;;;5057038;28;20389;-70
2022/08/13 02:44:57;;;;;;;8.80;5.18;;;;;;;;;;5264931;22;20047;-70
2022/08/13 02:47:23;;;;;;;8.10;4.70;;;;;;;;;;5061567;28;20048;-70
2022/08/13 02:49:51;;;;;;;6.20;4.43;;;;;;;;;;5053064;28;20483;-70
2022/08/13 02:52:19;;;;;;;7.32;4.88;;;;;;;;;;5039281;28;20026;-70
2022/08/13 02:54:47;;;;;;;5.57;4.55;;;;;;;;;;5051691;28;20041;-70
2022/08/13 02:57:13;;;;;;;7.90;4.38;;;;;;;;;;5040761;28;20014;-70
2022/08/13 02:59:41;;;;;;;6.93;4.57;;;;;;;;;;5038236;28;20025;-70
2022/08/13 03:02:08;;;;;;;6.95;4.38;;;;;;;;;;5039431;28;20005;-70
2022/08/13 03:04:34;;;;;;;9.38;4.32;;;;;;;;;;5052261;28;20475;-70
2022/08/13 03:07:01;;;;;;;5.85;4.40;;;;;;;;;;5047145;28;20037;-70
2022/08/13 03:09:27;;;;;;;7.57;4.70;;;;;;;;;;5040164;28;20113;-70
2022/08/13 03:11:55;;;;;;;6.85;4.55;;;;;;;;;;5040910;28;20056;-70
2022/08/13 03:14:22;;;;;;;5.57;4.53;;;;;;;;;;5042090;28;20045;-69
2022/08/13 03:16:48;;;;;;;9.25;4.70;;;;;;;;;;5039326;28;20005;-70
2022/08/13 03:19:14;;;;;;;8.55;4.63;;;;;;;;;;5055031;28;20067;-69
2022/08/13 03:21:41;;;;;;;6.55;4.63;;;;;;;;;;5052858;28;20001;-70
2022/08/13 03:24:08;;;;;;;7.00;4.82;;;;;;;;;;5043356;28;20029;-70
2022/08/13 03:26:35;;;;;;;8.18;5.10;;;;;;;;;;5039653;28;20083;-70
2022/08/13 03:29:01;;;;;;;5.05;4.55;;;;;;;;;;5043028;28;20075;-69
2022/08/13 03:31:28;;;;;;;6.78;5.10;;;;;;;;;;5050867;28;20012;-69
2022/08/13 03:34:01;;;;;;;5.63;4.43;;;;;;;;;;5067490;28;20120;-69
2022/08/13 03:36:27;;;;;;;6.70;4.85;;;;;;;;;;5049470;28;20018;-70
2022/08/13 03:38:53;;;;;;;5.97;4.95;;;;;;;;;;5048698;28;20014;-69
2022/08/13 03:41:19;;;;;;;7.18;5.15;;;;;;;;;;5046140;28;20029;-69
2022/08/13 03:43:47;;;;;;;7.15;4.60;;;;;;;;;;5046618;28;20447;-72
2022/08/13 03:46:14;;;;;;;8.73;5.10;;;;;;;;;;5049640;28;20022;-71
2022/08/13 03:48:40;;;;;;;6.63;5.13;;;;;;;;;;5051640;28;20005;-68
2022/08/13 03:51:07;;;;;;;7.88;4.70;;;;;;;;;;5050761;28;20029;-70
2022/08/13 03:53:35;;;;;;;8.93;4.93;;;;;;;;;;5054236;28;20040;-78
2022/08/13 03:56:01;;;;;;;6.43;5.10;;;;;;;;;;5038782;28;20029;-77
2022/08/13 03:58:28;;;;;;;8.20;4.72;;;;;;;;;;5041038;28;20018;-69
2022/08/13 04:00:55;;;;;;;12.57;4.97;;;;;;;;;;5036312;28;20072;-70
2022/08/13 04:03:21;;;;;;;7.70;4.70;;;;;;;;;;5042193;28;20062;-71
2022/08/13 04:05:48;;;;;;;7.18;5.13;;;;;;;;;;5031242;28;20112;-77
2022/08/13 04:08:15;;;;;;;9.35;4.72;;;;;;;;;;5038000;28;20049;-71
2022/08/13 04:10:41;;;;;;;10.18;4.68;;;;;;;;;;5041324;28;20029;-72
2022/08/13 04:13:12;;;;;;;6.40;4.78;;;;;;;;;;5045090;28;20029;-71
2022/08/13 04:15:42;;;;;;;8.75;4.88;;;;;;;;;;5043310;28;20037;-72
2022/08/13 04:18:08;;;;;;;8.38;5.00;;;;;;;;;;5030517;28;20100;-73
2022/08/13 04:20:36;;;;;;;5.10;4.60;;;;;;;;;;5038368;28;20043;-72
2022/08/13 04:23:06;;;;;;;5.55;5.05;;;;;;;;;;5044442;28;20025;-75
2022/08/13 04:25:32;;;;;;;6.13;4.85;;;;;;;;;;5035514;28;20372;-70
2022/08/13 04:27:58;;;;;;;6.85;5.15;;;;;;;;;;5043824;28;20030;-70
2022/08/13 04:30:24;;;;;;;7.32;4.90;;;;;;;;;;5045525;28;20026;-73
2022/08/13 04:32:50;;;;;;;5.78;5.00;;;;;;;;;;5056532;28;20037;-74
2022/08/13 04:35:17;;;;;;;8.35;5.00;;;;;;;;;;5040724;28;20085;-76
2022/08/13 04:37:43;;;;;;;8.27;5.30;;;;;;;;;;5037200;28;20032;-74
2022/08/13 04:40:10;;;;;;;7.47;5.38;;;;;;;;;;5046621;28;20537;-74
2022/08/13 04:42:53;;;;;;;7.70;4.90;;;;;;;;;;5042491;28;20083;-75
2022/08/13 04:45:21;;;;;;;8.15;4.88;;;;;;;;;;5036875;28;20037;-74
2022/08/13 04:47:48;;;;;;;7.78;5.57;;;;;;;;;;5044172;28;20024;-71
2022/08/13 04:50:14;;;;;;;10.27;5.80;;;;;;;;;;5042784;28;20061;-71
2022/08/13 04:52:41;;;;;;;7.30;5.50;;;;;;;;;;5046662;28;20048;-71
2022/08/13 04:55:10;;;;;;;7.80;5.32;;;;;;;;;;5044197;28;20088;-71
2022/08/13 04:57:37;;;;;;;7.57;5.10;;;;;;;;;;5059322;28;20024;-75
2022/08/13 05:00:05;;;;;;;7.82;5.20;;;;;;;;;;5041997;28;20297;-75
2022/08/13 05:02:31;;;;;;;7.13;5.78;;;;;;;;;;5028792;28;20105;-76
2022/08/13 05:04:58;;;;;;;12.27;6.22;;;;;;;;;;5034845;28;20029;-75
2022/08/13 05:07:26;;;;;;;8.63;6.10;;;;;;;;;;5034101;28;20150;-76
2022/08/13 05:09:52;;;;;;;6.43;5.30;;;;;;;;;;5033278;28;20100;-74
2022/08/13 05:12:18;;;;;;;7.28;5.60;;;;;;;;;;5036152;28;20025;-76
2022/08/13 05:14:46;;;;;;;7.82;5.50;;;;;;;;;;5034929;28;20049;-77
2022/08/13 05:17:12;;;;;;;6.93;5.40;;;;;;;;;;5043921;28;20022;-72
2022/08/13 05:19:38;;;;;;;8.20;5.65;;;;;;;;;;5041184;28;20867;-72
2022/08/13 05:22:04;;;;;;;6.07;5.32;;;;;;;;;;5045729;28;20029;-69
2022/08/13 05:24:30;;;;;;;7.28;5.47;;;;;;;;;;5043384;28;20022;-76
2022/08/13 05:26:58;;;;;;;6.57;5.45;;;;;;;;;;5045269;28;20076;-70
2022/08/13 05:29:25;;;;;;;9.02;5.43;;;;;;;;;;5052234;28;20026;-69
2022/08/13 05:31:52;;;;;;;10.82;5.57;;;;;;;;;;5052128;28;20013;-70
2022/08/13 05:34:18;;;;;;;7.40;5.55;;;;;;;;;;5052262;28;20045;-71
2022/08/13 05:36:46;;;;;;;6.50;5.20;;;;;;;;;;5050933;28;20029;-71
2022/08/13 05:39:13;;;;;;;6.78;5.22;;;;;;;;;;5048650;28;20123;-71
2022/08/13 05:41:41;;;;;;;10.77;5.28;;;;;;;;;;5045370;28;20025;-78
2022/08/13 05:44:09;;;;;;;8.07;5.03;;;;;;;;;;5043643;28;20055;-73
2022/08/13 05:46:36;;;;;;;9.55;5.80;;;;;;;;;;5027511;28;20423;-74
2022/08/13 05:49:02;;;;;;;9.75;5.70;;;;;;;;;;5034870;28;20041;-71
2022/08/13 05:51:31;;;;;;;9.73;5.05;;;;;;;;;;5035123;28;20065;-81
2022/08/13 05:53:59;;;;;;;6.30;4.90;;;;;;;;;;5038373;28;20120;-76
2022/08/13 05:56:26;;;;;;;8.35;5.15;;;;;;;;;;5030962;28;20615;-75
2022/08/13 05:58:52;;;;;;;7.00;5.38;;;;;;;;;;5026767;28;20041;-83
2022/08/13 06:04:08;;;;;;;10.23;5.47;;;;;;;;;;5047656;28;20505;-75
2022/08/13 06:06:34;;;;;;;6.25;5.18;;;;;;;;;;5051930;28;20108;-74
2022/08/13 06:09:00;;;;;;;11.00;5.45;;;;;;;;;;5050857;28;20029;-83
2022/08/13 06:11:29;;;;;;;9.10;5.40;;;;;;;;;;5057114;28;20029;-79
2022/08/13 06:13:55;;;;;;;6.88;4.68;;;;;;;;;;5036301;28;20033;-75
2022/08/13 06:16:22;;;;;;;8.20;5.00;;;;;;;;;;5052545;28;20086;-75
2022/08/13 06:21:55;;;;;;;7.63;5.05;;;;;;;;;;5069045;28;20572;-81
2022/08/13 06:24:23;;;;;;;6.18;5.30;;;;;;;;;;5052833;28;20072;-74
2022/08/13 06:26:50;;;;;;;9.40;5.35;;;;;;;;;;5052192;28;20029;-69
2022/08/13 06:29:18;;;;;;;5.35;4.80;;;;;;;;;;5047749;28;20033;-68
2022/08/13 06:31:45;;;;;;;7.85;5.32;;;;;;;;;;5054866;28;20032;-76
2022/08/13 06:34:11;;;;;;;9.23;5.35;;;;;;;;;;5051483;28;20040;-74
2022/08/13 06:36:37;;;;;;;17.85;6.47;;;;;;;;;;5053418;28;20501;-75
2022/08/13 06:39:05;;;;;;;6.40;5.25;;;;;;;;;;5051686;28;20028;-80
2022/08/13 06:41:32;;;;;;;9.25;5.57;;;;;;;;;;5052295;28;20088;-77
2022/08/13 06:43:58;;;;;;;6.53;5.05;;;;;;;;;;5053462;28;20041;-76
2022/08/13 06:46:27;;;;;;;15.00;5.65;;;;;;;;;;5034745;28;20041;-80
2022/08/13 06:48:53;;;;;;;6.88;4.72;;;;;;;;;;5032755;28;20028;-84
2022/08/13 06:51:20;;;;;;;9.07;4.90;;;;;;;;;;5053324;28;20021;-87
2022/08/13 06:53:47;;;;;;;9.32;5.15;;;;;;;;;;5034773;28;20500;-74
2022/08/13 06:56:15;;;;;;;9.40;5.40;;;;;;;;;;5047377;28;20040;-83
2022/08/13 06:58:43;;;;;;;10.25;5.38;;;;;;;;;;5037847;28;20076;-81
2022/08/13 07:01:09;;;;;;;11.05;5.88;;;;;;;;;;5051726;28;20036;-75
2022/08/13 07:03:38;;;;;;;8.10;5.50;;;;;;;;;;5050793;28;20079;-75
2022/08/13 07:06:04;;;;;;;8.57;6.57;;;;;;;;;;5054454;28;20453;-74
2022/08/13 07:08:31;;;;;;;8.05;5.72;;;;;;;;;;5053067;28;20032;-73
2022/08/13 07:16:48;;;;;;;9.68;6.20;;;;;;;;;;5057914;28;20044;-74
2022/08/13 07:19:14;;;;;;;12.65;6.35;;;;;;;;;;5058728;28;20029;-77
2022/08/13 07:21:42;;;;;;;15.82;6.80;;;;;;;;;;5060417;28;20142;-76
2022/08/13 07:24:18;;;;;;;9.52;6.80;;;;;;;;;;5057652;28;20104;-75
2022/08/13 07:26:45;;;;;;;10.60;7.13;;;;;;;;;;5064365;28;20033;-74
2022/08/13 07:29:12;;;;;;;15.02;8.48;;;;;;;;;;5052799;28;20021;-73
2022/08/13 07:31:41;;;;;;;8.57;7.40;;;;;;;;;;5054772;28;20025;-74
2022/08/13 07:34:07;;;;;;;35.50;8.75;;;;;;;;;;5054358;28;20034;-73
2022/08/13 07:36:36;;;;;;;9.43;7.00;;;;;;;;;;5060886;28;20024;-74
2022/08/13 07:39:05;;;;;;;13.88;7.25;;;;;;;;;;5052591;28;20021;-74
2022/08/13 07:41:32;;;;;;;12.60;7.50;;;;;;;;;;5042395;28;20017;-70
2022/08/13 07:43:59;;;;;;;12.57;7.60;;;;;;;;;;5061478;28;20495;-79
2022/08/13 07:46:27;;;;;;;13.32;8.20;;;;;;;;;;5060706;28;20041;-75
2022/08/13 07:48:53;;;;;;;13.38;8.55;;;;;;;;;;5058376;28;20021;-77
2022/08/13 07:51:21;;;;;;;14.38;7.97;;;;;;;;;;5054403;28;20031;-74
2022/08/13 07:53:52;;;;;;;12.32;7.63;;;;;;;;;;5054117;28;20078;-76
2022/08/13 07:56:28;;;;;;;12.52;8.00;;;;;;;;;;5056123;28;20044;-76
2022/08/13 07:59:04;;;;;;;15.38;7.97;;;;;;;;;;5047208;28;20061;-74
2022/08/13 08:01:33;;;;;;;17.17;8.60;;;;;;;;;;5053084;28;20545;-75
2022/08/13 08:04:02;;;;;;;13.07;8.82;;;;;;;;;;5043896;28;20029;-74
2022/08/13 08:06:29;;;;;;;10.98;8.60;;;;;;;;;;5054287;28;20067;-76
2022/08/13 08:08:55;;;;;;;13.35;7.53;;;;;;;;;;5035996;28;20479;-74
2022/08/13 08:14:07;;;;;;;11.52;8.07;;;;;;;;;;5048622;28;20403;-72
2022/08/13 08:16:36;;;;;;;9.40;8.18;;;;;;;;;;5051674;28;20056;-72
2022/08/13 08:19:14;;;;;;;9.65;8.38;;;;;;;;;;5062885;28;20021;-77
2022/08/13 08:21:41;;;;;;;14.23;7.97;;;;;;;;;;5065966;28;20029;-74
2022/08/13 08:24:08;;;;;;;8.15;7.30;;;;;;;;;;5061027;28;20025;-76
2022/08/13 08:26:37;;;;;;;11.52;7.80;;;;;;;;;;5051480;28;20372;-75
2022/08/13 08:29:09;;;;;;;10.38;7.68;;;;;;;;;;5059435;28;20021;-74
2022/08/13 08:31:38;;;;;;;9.32;7.63;;;;;;;;;;5054473;28;20466;-74
2022/08/13 08:34:07;;;;;;;9.45;8.18;;;;;;;;;;5049110;28;20041;-74
2022/08/13 08:36:42;;;;;;;8.50;7.43;;;;;;;;;;5052491;28;20052;-74
2022/08/13 08:44:39;;;;;;;12.40;7.97;;;;;;;;;;5064232;28;20056;-75
2022/08/13 08:47:07;;;;;;;12.27;8.25;;;;;;;;;;5053638;28;20040;-74
2022/08/13 08:49:33;;;;;;;10.90;7.97;;;;;;;;;;5044880;28;20013;-75
2022/08/13 08:51:59;;;;;;;12.13;7.38;;;;;;;;;;5056370;28;20907;-75
2022/08/13 08:54:27;;;;;;;11.32;7.40;;;;;;;;;;5050943;28;20045;-74
2022/08/13 08:56:57;;;;;;;12.27;8.10;;;;;;;;;;5050879;28;20025;-74
2022/08/13 08:59:24;;;;;;;8.90;7.68;;;;;;;;;;5053531;28;20122;-72
2022/08/13 09:01:52;;;;;;;11.40;8.00;;;;;;;;;;5051552;28;20033;-75
2022/08/13 09:04:19;;;;;;;14.45;10.45;;;;;;;;;;5057443;28;20506;-74
2022/08/13 09:06:48;;;;;;;17.38;11.45;;;;;;;;;;5052027;28;20386;-72
2022/08/13 09:09:14;;;;;;;11.02;9.25;;;;;;;;;;5054162;28;20048;-74
2022/08/13 09:11:40;;;;;;;11.25;7.95;;;;;;;;;;5057381;28;20021;-72
2022/08/13 09:14:08;;;;;;;9.40;8.10;;;;;;;;;;5050605;28;20103;-72
2022/08/13 09:16:37;;;;;;;10.40;8.10;;;;;;;;;;5048569;28;20024;-72
2022/08/13 09:19:04;;;;;;;11.55;8.30;;;;;;;;;;5047094;28;20021;-72
2022/08/13 09:21:30;;;;;;;10.68;8.35;;;;;;;;;;5048393;28;20031;-73
2022/08/13 09:23:57;;;;;;;11.45;8.45;;;;;;;;;;5047092;28;20028;-72
2022/08/13 09:26:23;;;;;;;10.98;8.82;;;;;;;;;;5053896;28;20025;-75
2022/08/13 09:28:56;;;;;;;9.35;7.85;;;;;;;;;;5051643;28;20029;-76
2022/08/13 09:31:23;;;;;;;13.75;8.27;;;;;;;;;;5053781;28;20029;-73
2022/08/13 09:33:52;;;;;;;9.68;8.25;;;;;;;;;;5048509;28;20404;-73
2022/08/13 09:36:19;;;;;;;12.02;9.27;;;;;;;;;;5034469;28;20032;-74
2022/08/13 09:38:48;;;;;;;21.17;10.07;;;;;;;;;;5038714;28;20490;-74
2022/08/13 09:41:24;;;;;;;12.00;8.57;;;;;;;;;;5050860;28;20054;-77
2022/08/13 09:43:51;;;;;;;13.02;8.82;;;;;;;;;;5039429;28;20025;-78
2022/08/13 09:46:21;;;;;;;10.82;8.68;;;;;;;;;;5051703;28;20025;-75
2022/08/13 09:48:51;;;;;;;14.57;10.15;;;;;;;;;;5050394;28;20479;-71
2022/08/13 09:51:17;;;;;;;12.23;9.43;;;;;;;;;;5051321;28;20040;-74
2022/08/13 09:53:47;;;;;;;14.52;9.60;;;;;;;;;;5050942;28;20029;-76
2022/08/13 09:56:17;;;;;;;12.90;9.30;;;;;;;;;;5046200;28;20993;-75
2022/08/13 09:58:49;;;;;;;12.68;8.90;;;;;;;;;;5050765;28;20403;-76
2022/08/13 10:01:16;;;;;;;10.23;8.20;;;;;;;;;;5041786;28;20032;-73
2022/08/13 10:03:42;;;;;;;12.25;8.38;;;;;;;;;;5060306;28;20036;-75
2022/08/13 10:06:11;;;;;;;13.50;9.07;;;;;;;;;;5062851;28;20025;-77
2022/08/13 10:08:37;;;;;;;11.35;8.75;;;;;;;;;;5059151;28;20029;-75
2022/08/13 10:11:04;;;;;;;11.35;8.00;;;;;;;;;;5043057;28;20040;-74
2022/08/13 10:13:30;;;;;;;11.05;8.13;;;;;;;;;;5052339;28;20032;-76
2022/08/13 10:15:59;;;;;;;9.45;8.50;;;;;;;;;;5059748;28;20033;-75
2022/08/13 10:18:27;;;;;;;11.00;8.70;;;;;;;;;;5060702;28;20036;-74
2022/08/13 10:20:53;;;;;;;11.10;8.00;;;;;;;;;;5064264;28;20021;-75
2022/08/13 10:23:20;;;;;;;9.95;8.07;;;;;;;;;;5038800;28;20059;-75
2022/08/13 10:25:46;;;;;;;12.38;9.30;;;;;;;;;;5058354;28;20039;-77
2022/08/13 10:28:31;;;;;;;8.55;7.65;;;;;;;;;;5047875;28;20089;-80
2022/08/13 10:31:03;;;;;;;9.82;8.43;;;;;;;;;;5057935;28;20043;-70
2022/08/13 10:33:32;;;;;;;12.65;9.02;;;;;;;;;;5057856;28;20021;-70
2022/08/13 10:35:59;;;;;;;9.60;8.10;;;;;;;;;;5062641;28;20068;-75
2022/08/13 10:38:26;;;;;;;10.32;8.40;;;;;;;;;;5056100;28;20032;-76
2022/08/13 10:40:55;;;;;;;9.20;8.30;;;;;;;;;;5060135;28;20025;-75
2022/08/13 10:43:22;;;;;;;8.70;7.80;;;;;;;;;;5062543;28;20021;-76
2022/08/13 10:45:49;;;;;;;10.18;8.18;;;;;;;;;;5062137;28;20075;-77
2022/08/13 10:48:15;;;;;;;9.38;7.97;;;;;;;;;;5059683;28;20600;-76
2022/08/13 10:50:42;;;;;;;11.32;8.68;;;;;;;;;;5058110;28;20025;-74
2022/08/13 10:53:08;;;;;;;10.70;9.15;;;;;;;;;;5056202;28;20029;-76
2022/08/13 10:55:35;;;;;;;11.65;8.65;;;;;;;;;;5055778;28;20589;-75
2022/08/13 10:58:03;;;;;;;11.13;9.52;;;;;;;;;;5055944;28;20550;-74
2022/08/13 11:00:30;;;;;;;9.88;8.88;;;;;;;;;;5059346;28;20028;-78
2022/08/13 11:03:03;;;;;;;10.05;8.48;;;;;;;;;;5067836;28;20033;-78
2022/08/13 11:05:50;;;;;;;11.65;9.13;;;;;;;;;;5064433;28;20033;-75
2022/08/13 11:08:16;;;;;;;12.98;9.02;;;;;;;;;;5058046;28;20025;-76
2022/08/13 11:10:42;;;;;;;9.82;8.82;;;;;;;;;;5060731;28;20031;-76
2022/08/13 11:13:08;;;;;;;10.02;8.77;;;;;;;;;;5048815;28;20145;-75
2022/08/13 11:15:36;;;;;;;11.52;8.63;;;;;;;;;;5063321;28;20032;-76
2022/08/13 11:18:02;;;;;;;9.95;8.88;;;;;;;;;;5054830;28;20025;-76
2022/08/13 11:20:29;;;;;;;9.60;8.60;;;;;;;;;;5054019;28;20098;-85
2022/08/13 11:22:56;;;;;;;11.52;9.38;;;;;;;;;;5054548;28;20391;-78
2022/08/13 11:25:23;;;;;;;11.45;8.82;;;;;;;;;;5050789;28;20029;-81
2022/08/13 11:27:49;;;;;;;9.02;8.10;;;;;;;;;;5050419;28;20522;-78
2022/08/13 11:30:16;;;;;;;11.38;7.97;;;;;;;;;;5050626;28;20028;-84
2022/08/13 11:32:42;;;;;;;10.05;7.75;;;;;;;;;;5050555;28;20029;-85
2022/08/13 11:35:09;;;;;;;10.90;7.90;;;;;;;;;;5051315;28;20107;-80
2022/08/13 11:37:35;;;;;;;10.70;7.75;;;;;;;;;;5029926;28;20037;-82
2022/08/13 11:40:03;;;;;;;8.20;7.20;;;;;;;;;;5053534;28;20029;-78
2022/08/13 11:42:29;;;;;;;11.93;8.95;;;;;;;;;;5051471;28;20078;-77
2022/08/13 11:44:55;;;;;;;9.75;7.72;;;;;;;;;;5050305;28;20062;-77
2022/08/13 11:47:21;;;;;;;11.30;8.25;;;;;;;;;;5051387;28;20075;-80
2022/08/13 11:49:47;;;;;;;9.93;7.60;;;;;;;;;;5049685;28;20029;-74
2022/08/13 11:52:13;;;;;;;11.93;7.53;;;;;;;;;;5050224;28;20025;-81
2022/08/13 11:54:42;;;;;;;9.38;7.40;;;;;;;;;;5055604;28;20037;-89
2022/08/13 11:57:09;;;;;;;8.27;7.22;;;;;;;;;;5037110;28;20103;-83
2022/08/13 11:59:35;;;;;;;8.40;7.53;;;;;;;;;;5051574;28;20812;-72
2022/08/13 12:02:01;;;;;;;14.20;8.45;;;;;;;;;;5049007;28;20390;-69
2022/08/13 12:04:27;;;;;;;10.68;8.00;;;;;;;;;;5050217;28;20047;-71
2022/08/13 12:06:53;;;;;;;12.00;8.30;;;;;;;;;;5054477;28;20032;-78
2022/08/13 12:09:20;;;;;;;9.70;7.38;;;;;;;;;;5051879;28;20017;-82
2022/08/13 12:11:46;;;;;;;10.13;7.78;;;;;;;;;;5051097;28;20029;-72
2022/08/13 12:14:12;;;;;;;8.07;7.20;;;;;;;;;;5052537;28;20372;-77
2022/08/13 12:16:39;;;;;;;10.55;7.45;;;;;;;;;;5049659;28;20104;-79
2022/08/13 12:19:05;;;;;;;7.40;6.50;;;;;;;;;;5045950;28;20036;-72
2022/08/13 12:21:32;;;;;;;7.68;6.70;;;;;;;;;;5051501;28;20147;-71
2022/08/13 12:23:59;;;;;;;9.02;7.85;;;;;;;;;;5046631;28;20030;-75
2022/08/13 12:26:25;;;;;;;9.20;8.23;;;;;;;;;;5050647;28;20037;-72
2022/08/13 12:28:51;;;;;;;13.93;7.78;;;;;;;;;;5051957;28;20033;-69
2022/08/13 12:31:18;;;;;;;12.10;8.15;;;;;;;;;;5051155;28;20020;-70
2022/08/13 12:33:44;;;;;;;9.48;7.80;;;;;;;;;;5049421;28;20029;-80
2022/08/13 12:36:11;;;;;;;8.90;7.80;;;;;;;;;;5052503;28;20025;-79
2022/08/13 12:38:37;;;;;;;8.77;7.43;;;;;;;;;;5047652;28;20025;-79
2022/08/13 12:41:04;;;;;;;10.30;7.40;;;;;;;;;;5044195;28;20056;-86
2022/08/13 12:43:30;;;;;;;10.48;7.60;;;;;;;;;;5050850;28;20044;-75
2022/08/13 12:45:57;;;;;;;8.90;7.95;;;;;;;;;;5052163;28;20055;-84
2022/08/13 12:48:28;;;;;;;9.50;7.68;;;;;;;;;;5048895;28;20016;-84
2022/08/13 12:50:54;;;;;;;8.15;7.35;;;;;;;;;;5051602;28;20032;-76
2022/08/13 12:53:20;;;;;;;9.18;8.00;;;;;;;;;;5051131;28;20016;-85
2022/08/13 12:55:46;;;;;;;8.45;7.63;;;;;;;;;;5050387;28;20037;-85
2022/08/13 12:58:25;;;;;;;8.80;7.90;;;;;;;;;;5047917;28;20021;-72
2022/08/13 13:00:53;;;;;;;9.13;7.85;;;;;;;;;;5050667;28;20033;-78
2022/08/13 13:03:19;;;;;;;11.02;7.85;;;;;;;;;;5051742;28;20021;-70
2022/08/13 13:05:46;;;;;;;10.73;7.90;;;;;;;;;;5049978;28;20040;-80
2022/08/13 13:08:20;;;;;;;12.00;8.38;;;;;;;;;;5049220;28;20021;-75
2022/08/13 13:10:46;;;;;;;8.93;8.02;;;;;;;;;;5052813;28;20032;-71
2022/08/13 13:13:13;;;;;;;11.13;8.05;;;;;;;;;;5053138;28;20483;-74
2022/08/13 13:15:40;;;;;;;8.70;7.47;;;;;;;;;;5051826;28;20044;-85
2022/08/13 13:18:10;;;;;;;8.95;6.93;;;;;;;;;;5051337;28;20078;-70
2022/08/13 13:20:37;;;;;;;12.68;8.18;;;;;;;;;;5052673;28;20098;-70
2022/08/13 13:23:03;;;;;;;9.10;7.85;;;;;;;;;;5050093;28;20021;-82
2022/08/13 13:25:29;;;;;;;9.55;7.68;;;;;;;;;;5049687;28;20414;-70
2022/08/13 13:27:56;;;;;;;8.30;7.47;;;;;;;;;;5049605;28;20039;-84
2022/08/13 13:30:22;;;;;;;8.43;6.95;;;;;;;;;;5051596;28;20027;-72
2022/08/13 13:32:48;;;;;;;9.63;7.32;;;;;;;;;;5050754;28;20378;-82
2022/08/13 13:35:14;;;;;;;7.97;7.15;;;;;;;;;;5051214;28;20091;-71
2022/08/13 13:37:42;;;;;;;9.18;7.78;;;;;;;;;;5049988;28;20022;-79
2022/08/13 13:40:09;;;;;;;10.25;7.32;;;;;;;;;;5059583;28;20521;-70
2022/08/13 13:42:35;;;;;;;9.60;7.03;;;;;;;;;;5054507;28;20116;-74
2022/08/13 13:45:01;;;;;;;8.45;6.75;;;;;;;;;;5051917;28;20052;-70
2022/08/13 13:47:29;;;;;;;9.07;6.70;;;;;;;;;;5053393;28;20496;-70
2022/08/13 13:49:55;;;;;;;8.93;6.55;;;;;;;;;;5053559;28;20035;-69
2022/08/13 13:52:21;;;;;;;7.43;6.60;;;;;;;;;;5055977;28;20036;-70
2022/08/13 13:54:49;;;;;;;10.05;7.82;;;;;;;;;;5053042;28;20052;-78
2022/08/13 13:57:15;;;;;;;8.40;6.57;;;;;;;;;;5043274;28;20033;-71
2022/08/13 13:59:41;;;;;;;9.05;7.15;;;;;;;;;;5042608;28;20609;-70
2022/08/13 14:02:08;;;;;;;7.55;6.70;;;;;;;;;;5056701;28;20487;-70
2022/08/13 14:04:34;;;;;;;9.52;6.38;;;;;;;;;;5054072;28;20025;-69
2022/08/13 14:07:06;;;;;;;11.85;7.38;;;;;;;;;;5052816;28;20489;-72
2022/08/13 14:09:34;;;;;;;9.20;6.50;;;;;;;;;;5051593;28;20043;-73
2022/08/13 14:12:02;;;;;;;11.77;6.78;;;;;;;;;;5053826;28;20021;-87
2022/08/13 14:14:28;;;;;;;7.20;6.50;;;;;;;;;;5037855;28;20037;-76
2022/08/13 14:16:54;;;;;;;9.23;7.05;;;;;;;;;;5046689;28;20044;-77
2022/08/13 14:19:21;;;;;;;7.30;6.32;;;;;;;;;;5050056;28;20390;-79
2022/08/13 14:21:51;;;;;;;15.40;6.80;;;;;;;;;;5050636;28;20547;-82
2022/08/13 14:24:18;;;;;;;7.70;6.88;;;;;;;;;;5042774;28;20491;-80
2022/08/13 14:26:45;;;;;;;8.88;6.55;;;;;;;;;;5052326;28;20036;-77
2022/08/13 14:29:13;;;;;;;9.23;7.20;;;;;;;;;;5050712;28;20025;-73
2022/08/13 14:31:40;;;;;;;7.78;6.97;;;;;;;;;;5053812;28;20475;-80
2022/08/13 14:34:07;;;;;;;9.80;6.20;;;;;;;;;;5033533;28;20123;-79
2022/08/13 14:36:33;;;;;;;7.18;6.28;;;;;;;;;;5051721;28;20490;-79
2022/08/13 14:39:00;;;;;;;9.27;6.40;;;;;;;;;;5053046;28;20029;-78
2022/08/13 14:41:26;;;;;;;8.40;6.50;;;;;;;;;;5048149;28;20048;-81
2022/08/13 14:43:52;;;;;;;7.65;6.72;;;;;;;;;;5051958;28;21229;-80
2022/08/13 14:46:18;;;;;;;9.07;6.78;;;;;;;;;;5052105;28;20039;-83
2022/08/13 14:48:44;;;;;;;8.32;6.75;;;;;;;;;;5031253;28;20434;-77
2022/08/13 14:51:10;;;;;;;7.18;6.38;;;;;;;;;;5051051;28;20155;-80
2022/08/13 14:53:37;;;;;;;8.63;6.00;;;;;;;;;;5052083;28;20032;-85
2022/08/13 14:56:03;;;;;;;8.50;6.88;;;;;;;;;;5050916;28;20060;-81
2022/08/13 14:58:30;;;;;;;7.43;6.57;;;;;;;;;;5050857;28;20036;-79
2022/08/13 15:00:56;;;;;;;10.57;6.45;;;;;;;;;;5049022;28;20037;-68
2022/08/13 15:03:23;;;;;;;8.35;6.38;;;;;;;;;;5052182;28;20052;-69
2022/08/13 15:05:51;;;;;;;7.57;6.50;;;;;;;;;;5052350;28;20029;-68
2022/08/13 15:08:18;;;;;;;8.88;6.57;;;;;;;;;;5051771;28;20029;-68
2022/08/13 15:10:54;;;;;;;10.48;7.18;;;;;;;;;;5050664;28;20504;-66
2022/08/13 15:13:20;;;;;;;9.63;6.93;;;;;;;;;;5051484;28;20017;-79